sensor_id;sensor_type;location;lat;lon;timestamp;pressure;altitude;pressure_sealevel;temperature;humidity
39793;BME280;26080;42.264;24.536;2023-04-01T00:00:28;98499.91;;;6.77;100.00
39793;BME280;26080;42.264;24.536;2023-04-01T00:02:53;98500.50;;;6.64;100.00
39793;BME280;26080;42.264;24.536;2023-04-01T00:05:18;98509.44;;;6.58;100.00
39793;BME280;26080;42.264;24.536;2023-04-01T00:07:44;98504.34;;;6.55;100.00
39793;BME280;26080;42.264;24.536;2023-04-01T00:10:11;98491.34;;;6.55;100.00
39793;BME280;26080;42.264;24.536;2023-04-01T00:12:37;98491.94;;;6.41;100.00
39793;BME280;26080;42.264;24.536;2023-04-01T00:15:05;98501.50;;;6.41;100.00
39793;BME280;26080;42.264;24.536;2023-04-01T00:17:31;98498.34;;;6.34;100.00
39793;BME280;26080;42.264;24.536;2023-04-01T00:19:57;98502.03;;;6.49;100.00
39793;BME280;26080;42.264;24.536;2023-04-01T00:22:23;98505.25;;;6.74;100.00
39793;BME280;26080;42.264;24.536;2023-04-01T00:24:50;98498.78;;;6.83;100.00
39793;BME280;26080;42.264;24.536;2023-04-01T00:27:15;98505.81;;;6.81;100.00
39793;BME280;26080;42.264;24.536;2023-04-01T00:29:45;98511.09;;;6.79;100.00
39793;BME280;26080;42.264;24.536;2023-04-01T00:32:13;98506.41;;;6.88;100.00
39793;BME280;26080;42.264;24.536;2023-04-01T00:34:38;98496.19;;;7.02;100.00
39793;BME280;26080;42.264;24.536;2023-04-01T00:37:05;98487.94;;;7.11;100.00
39793;BME280;26080;42.264;24.536;2023-04-01T00:39:31;98490.34;;;7.34;100.00
39793;BME280;26080;42.264;24.536;2023-04-01T00:41:57;98491.03;;;7.38;100.00
39793;BME280;26080;42.264;24.536;2023-04-01T00:44:25;98496.88;;;7.43;100.00
39793;BME280;26080;42.264;24.536;2023-04-01T00:46:51;98495.75;;;7.49;100.00
39793;BME280;26080;42.264;24.536;2023-04-01T00:49:19;98491.88;;;7.57;100.00
39793;BME280;26080;42.264;24.536;2023-04-01T00:51:47;98491.47;;;7.65;100.00
39793;BME280;26080;42.264;24.536;2023-04-01T00:54:14;98486.31;;;7.82;100.00
39793;BME280;26080;42.264;24.536;2023-04-01T00:57:05;98488.00;;;7.83;100.00
39793;BME280;26080;42.264;24.536;2023-04-01T00:59:34;98494.25;;;7.79;100.00
39793;BME280;26080;42.264;24.536;2023-04-01T01:02:03;98489.84;;;7.81;100.00
39793;BME280;26080;42.264;24.536;2023-04-01T01:04:32;98486.16;;;7.85;100.00
39793;BME280;26080;42.264;24.536;2023-04-01T01:13:11;98504.88;;;8.11;100.00
39793;BME280;26080;42.264;24.536;2023-04-01T01:15:58;98492.44;;;7.81;100.00
39793;BME280;26080;42.264;24.536;2023-04-01T01:21:32;98486.75;;;7.73;100.00
39793;BME280;26080;42.264;24.536;2023-04-01T01:24:21;98478.16;;;7.71;100.00
39793;BME280;26080;42.264;24.536;2023-04-01T01:27:06;98489.38;;;7.90;100.00
39793;BME280;26080;42.264;24.536;2023-04-01T01:37:45;98422.19;;;7.43;100.00
39793;BME280;26080;42.264;24.536;2023-04-01T01:40:13;98440.59;;;7.58;100.00
39793;BME280;26080;42.264;24.536;2023-04-01T01:42:43;98444.25;;;7.54;100.00
39793;BME280;26080;42.264;24.536;2023-04-01T01:45:12;98447.72;;;7.54;100.00
39793;BME280;26080;42.264;24.536;2023-04-01T01:47:40;98460.75;;;7.54;100.00
39793;BME280;26080;42.264;24.536;2023-04-01T01:50:07;98415.00;;;6.94;100.00
39793;BME280;26080;42.264;24.536;2023-04-01T01:52:33;98448.06;;;6.92;100.00
39793;BME280;26080;42.264;24.536;2023-04-01T01:54:58;98456.00;;;6.70;100.00
39793;BME280;26080;42.264;24.536;2023-04-01T01:57:29;98459.09;;;6.59;100.00
39793;BME280;26080;42.264;24.536;2023-04-01T02:00:02;98456.84;;;6.70;100.00
39793;BME280;26080;42.264;24.536;2023-04-01T02:02:28;98453.91;;;6.59;100.00
39793;BME280;26080;42.264;24.536;2023-04-01T02:04:57;98445.88;;;6.45;100.00
39793;BME280;26080;42.264;24.536;2023-04-01T02:07:30;98452.59;;;6.49;100.00
39793;BME280;26080;42.264;24.536;2023-04-01T02:09:56;98445.56;;;6.51;100.00
39793;BME280;26080;42.264;24.536;2023-04-01T02:12:23;98449.63;;;6.38;100.00
39793;BME280;26080;42.264;24.536;2023-04-01T02:17:20;98439.91;;;6.22;100.00
39793;BME280;26080;42.264;24.536;2023-04-01T02:19:50;98442.06;;;6.52;100.00
39793;BME280;26080;42.264;24.536;2023-04-01T02:22:21;98434.63;;;6.63;100.00
39793;BME280;26080;42.264;24.536;2023-04-01T02:24:47;98446.66;;;6.66;100.00
39793;BME280;26080;42.264;24.536;2023-04-01T02:27:14;98445.28;;;6.57;100.00
39793;BME280;26080;42.264;24.536;2023-04-01T02:29:40;98452.84;;;6.63;100.00
39793;BME280;26080;42.264;24.536;2023-04-01T02:32:06;98446.38;;;6.91;100.00
39793;BME280;26080;42.264;24.536;2023-04-01T02:34:33;98446.16;;;6.95;100.00
39793;BME280;26080;42.264;24.536;2023-04-01T02:36:58;98447.84;;;6.96;100.00
39793;BME280;26080;42.264;24.536;2023-04-01T02:39:24;98444.03;;;6.84;100.00
39793;BME280;26080;42.264;24.536;2023-04-01T02:41:52;98443.28;;;6.82;100.00
39793;BME280;26080;42.264;24.536;2023-04-01T02:44:17;98453.06;;;6.96;100.00
39793;BME280;26080;42.264;24.536;2023-04-01T02:46:43;98444.53;;;6.93;100.00
39793;BME280;26080;42.264;24.536;2023-04-01T02:49:08;98443.38;;;7.00;100.00
39793;BME280;26080;42.264;24.536;2023-04-01T02:51:34;98428.91;;;7.11;100.00
39793;BME280;26080;42.264;24.536;2023-04-01T02:54:00;98436.44;;;7.18;100.00
39793;BME280;26080;42.264;24.536;2023-04-01T02:56:25;98437.22;;;7.20;100.00
39793;BME280;26080;42.264;24.536;2023-04-01T02:58:51;98436.13;;;7.24;100.00
39793;BME280;26080;42.264;24.536;2023-04-01T03:01:17;98426.44;;;7.27;100.00
39793;BME280;26080;42.264;24.536;2023-04-01T03:03:42;98414.69;;;7.19;100.00
39793;BME280;26080;42.264;24.536;2023-04-01T03:06:09;98417.28;;;7.19;100.00
39793;BME280;26080;42.264;24.536;2023-04-01T03:08:37;98419.78;;;7.03;100.00
39793;BME280;26080;42.264;24.536;2023-04-01T03:11:02;98420.56;;;7.05;100.00
39793;BME280;26080;42.264;24.536;2023-04-01T03:13:28;98410.97;;;7.05;100.00
39793;BME280;26080;42.264;24.536;2023-04-01T03:15:53;98424.63;;;7.10;100.00
39793;BME280;26080;42.264;24.536;2023-04-01T03:18:19;98400.72;;;6.83;100.00
39793;BME280;26080;42.264;24.536;2023-04-01T03:20:45;98415.63;;;6.80;100.00
39793;BME280;26080;42.264;24.536;2023-04-01T03:23:10;98410.66;;;6.75;100.00
39793;BME280;26080;42.264;24.536;2023-04-01T03:25:36;98408.41;;;6.87;100.00
39793;BME280;26080;42.264;24.536;2023-04-01T03:28:14;98395.31;;;6.69;100.00
39793;BME280;26080;42.264;24.536;2023-04-01T03:30:39;98399.59;;;6.70;100.00
39793;BME280;26080;42.264;24.536;2023-04-01T03:33:05;98404.09;;;6.67;100.00
39793;BME280;26080;42.264;24.536;2023-04-01T03:35:31;98404.19;;;6.65;100.00
39793;BME280;26080;42.264;24.536;2023-04-01T03:37:56;98409.03;;;6.73;100.00
39793;BME280;26080;42.264;24.536;2023-04-01T03:40:22;98402.81;;;6.57;100.00
39793;BME280;26080;42.264;24.536;2023-04-01T03:42:48;98404.25;;;6.64;100.00
39793;BME280;26080;42.264;24.536;2023-04-01T03:45:14;98402.91;;;6.55;100.00
39793;BME280;26080;42.264;24.536;2023-04-01T03:47:40;98409.44;;;6.45;100.00
39793;BME280;26080;42.264;24.536;2023-04-01T03:50:06;98404.50;;;6.39;100.00
39793;BME280;26080;42.264;24.536;2023-04-01T03:52:33;98400.84;;;6.43;100.00
39793;BME280;26080;42.264;24.536;2023-04-01T03:54:58;98409.53;;;6.62;100.00
39793;BME280;26080;42.264;24.536;2023-04-01T03:57:23;98391.47;;;6.59;100.00
39793;BME280;26080;42.264;24.536;2023-04-01T03:59:49;98388.63;;;6.64;100.00
39793;BME280;26080;42.264;24.536;2023-04-01T04:02:15;98391.47;;;6.59;100.00
39793;BME280;26080;42.264;24.536;2023-04-01T04:04:40;98387.94;;;6.60;100.00
39793;BME280;26080;42.264;24.536;2023-04-01T04:07:06;98391.16;;;6.65;100.00
39793;BME280;26080;42.264;24.536;2023-04-01T04:09:32;98391.84;;;6.69;100.00
39793;BME280;26080;42.264;24.536;2023-04-01T04:11:58;98400.03;;;6.61;100.00
39793;BME280;26080;42.264;24.536;2023-04-01T04:14:24;98394.53;;;6.67;100.00
39793;BME280;26080;42.264;24.536;2023-04-01T04:16:49;98402.28;;;6.88;100.00
39793;BME280;26080;42.264;24.536;2023-04-01T04:19:15;98399.88;;;7.02;100.00
39793;BME280;26080;42.264;24.536;2023-04-01T04:21:41;98374.13;;;6.96;100.00
39793;BME280;26080;42.264;24.536;2023-04-01T04:24:07;98402.88;;;7.11;100.00
39793;BME280;26080;42.264;24.536;2023-04-01T04:26:32;98399.31;;;7.14;100.00
39793;BME280;26080;42.264;24.536;2023-04-01T04:28:58;98400.41;;;7.27;100.00
39793;BME280;26080;42.264;24.536;2023-04-01T04:31:24;98398.09;;;7.38;100.00
39793;BME280;26080;42.264;24.536;2023-04-01T04:33:50;98397.81;;;7.45;100.00
39793;BME280;26080;42.264;24.536;2023-04-01T04:36:17;98395.66;;;7.53;100.00
39793;BME280;26080;42.264;24.536;2023-04-01T04:38:43;98376.66;;;7.51;100.00
39793;BME280;26080;42.264;24.536;2023-04-01T04:41:12;98402.25;;;7.77;100.00
39793;BME280;26080;42.264;24.536;2023-04-01T04:43:40;98399.19;;;7.86;100.00
39793;BME280;26080;42.264;24.536;2023-04-01T04:46:10;98400.88;;;7.87;100.00
39793;BME280;26080;42.264;24.536;2023-04-01T04:48:36;98405.72;;;7.95;100.00
39793;BME280;26080;42.264;24.536;2023-04-01T04:51:02;98407.41;;;7.96;100.00
39793;BME280;26080;42.264;24.536;2023-04-01T04:53:28;98403.81;;;7.98;100.00
39793;BME280;26080;42.264;24.536;2023-04-01T04:55:54;98394.59;;;8.09;100.00
39793;BME280;26080;42.264;24.536;2023-04-01T04:58:19;98390.41;;;8.22;100.00
39793;BME280;26080;42.264;24.536;2023-04-01T05:00:45;98390.78;;;8.31;100.00
39793;BME280;26080;42.264;24.536;2023-04-01T05:03:12;98354.38;;;8.13;100.00
39793;BME280;26080;42.264;24.536;2023-04-01T05:05:37;98379.88;;;8.41;100.00
39793;BME280;26080;42.264;24.536;2023-04-01T05:08:03;98376.19;;;8.45;100.00
39793;BME280;26080;42.264;24.536;2023-04-01T05:10:28;98338.09;;;8.25;100.00
39793;BME280;26080;42.264;24.536;2023-04-01T05:12:54;98363.59;;;8.53;100.00
39793;BME280;26080;42.264;24.536;2023-04-01T05:15:20;98341.84;;;8.37;100.00
39793;BME280;26080;42.264;24.536;2023-04-01T05:17:46;98360.72;;;8.57;100.00
39793;BME280;26080;42.264;24.536;2023-04-01T05:20:14;98349.97;;;8.64;100.00
39793;BME280;26080;42.264;24.536;2023-04-01T05:22:40;98361.91;;;8.68;100.00
39793;BME280;26080;42.264;24.536;2023-04-01T05:25:06;98360.63;;;8.75;100.00
39793;BME280;26080;42.264;24.536;2023-04-01T05:27:32;98346.75;;;8.74;100.00
39793;BME280;26080;42.264;24.536;2023-04-01T05:29:58;98362.56;;;8.87;100.00
39793;BME280;26080;42.264;24.536;2023-04-01T05:32:23;98364.69;;;8.96;100.00
39793;BME280;26080;42.264;24.536;2023-04-01T05:34:52;98361.91;;;8.99;100.00
39793;BME280;26080;42.264;24.536;2023-04-01T05:37:18;98363.91;;;9.10;100.00
39793;BME280;26080;42.264;24.536;2023-04-01T05:39:44;98360.44;;;9.25;100.00
39793;BME280;26080;42.264;24.536;2023-04-01T05:42:09;98349.56;;;9.33;100.00
39793;BME280;26080;42.264;24.536;2023-04-01T05:44:35;98342.84;;;9.43;100.00
39793;BME280;26080;42.264;24.536;2023-04-01T05:47:01;98342.41;;;9.50;100.00
39793;BME280;26080;42.264;24.536;2023-04-01T05:49:26;98337.09;;;9.52;100.00
39793;BME280;26080;42.264;24.536;2023-04-01T05:51:52;98326.09;;;9.47;100.00
39793;BME280;26080;42.264;24.536;2023-04-01T05:54:18;98325.53;;;9.56;100.00
39793;BME280;26080;42.264;24.536;2023-04-01T05:56:43;98320.50;;;9.53;100.00
39793;BME280;26080;42.264;24.536;2023-04-01T05:59:10;98314.53;;;9.65;100.00
39793;BME280;26080;42.264;24.536;2023-04-01T06:01:35;98307.34;;;9.69;100.00
39793;BME280;26080;42.264;24.536;2023-04-01T06:04:01;98293.44;;;9.68;100.00
39793;BME280;26080;42.264;24.536;2023-04-01T06:06:28;98287.91;;;9.59;100.00
39793;BME280;26080;42.264;24.536;2023-04-01T06:08:57;98283.69;;;9.42;100.00
39793;BME280;26080;42.264;24.536;2023-04-01T06:23:37;98296.47;;;9.32;100.00
39793;BME280;26080;42.264;24.536;2023-04-01T06:26:17;98298.75;;;9.53;100.00
39793;BME280;26080;42.264;24.536;2023-04-01T06:28:55;98297.72;;;9.55;100.00
39793;BME280;26080;42.264;24.536;2023-04-01T06:37:14;98287.28;;;9.84;100.00
39793;BME280;26080;42.264;24.536;2023-04-01T06:45:17;98282.66;;;10.31;100.00
39793;BME280;26080;42.264;24.536;2023-04-01T06:50:48;98292.75;;;10.64;100.00
39793;BME280;26080;42.264;24.536;2023-04-01T06:53:36;98296.81;;;10.56;100.00
39793;BME280;26080;42.264;24.536;2023-04-01T06:56:13;98291.25;;;10.75;100.00
39793;BME280;26080;42.264;24.536;2023-04-01T06:58:49;98267.03;;;10.98;100.00
39793;BME280;26080;42.264;24.536;2023-04-01T07:01:22;98261.19;;;11.07;100.00
39793;BME280;26080;42.264;24.536;2023-04-01T07:06:57;98268.81;;;11.50;100.00
39793;BME280;26080;42.264;24.536;2023-04-01T07:09:46;98264.84;;;11.57;100.00
39793;BME280;26080;42.264;24.536;2023-04-01T07:12:21;98254.75;;;11.64;100.00
39793;BME280;26080;42.264;24.536;2023-04-01T07:14:53;98244.19;;;11.52;100.00
39793;BME280;26080;42.264;24.536;2023-04-01T07:17:23;98242.59;;;11.63;100.00
39793;BME280;26080;42.264;24.536;2023-04-01T07:22:32;98257.31;;;12.03;100.00
39793;BME280;26080;42.264;24.536;2023-04-01T07:25:12;98256.19;;;12.31;100.00
39793;BME280;26080;42.264;24.536;2023-04-01T07:27:38;98259.75;;;12.43;100.00
39793;BME280;26080;42.264;24.536;2023-04-01T07:30:18;98253.00;;;12.52;100.00
39793;BME280;26080;42.264;24.536;2023-04-01T07:35:24;98236.75;;;12.70;100.00
39793;BME280;26080;42.264;24.536;2023-04-01T07:43:08;98228.13;;;13.16;100.00
39793;BME280;26080;42.264;24.536;2023-04-01T07:46:06;98235.25;;;13.14;100.00
39793;BME280;26080;42.264;24.536;2023-04-01T07:51:22;98227.88;;;13.43;100.00
39793;BME280;26080;42.264;24.536;2023-04-01T07:53:54;98237.44;;;13.44;100.00
39793;BME280;26080;42.264;24.536;2023-04-01T07:56:28;98233.09;;;13.32;100.00
39793;BME280;26080;42.264;24.536;2023-04-01T08:02:20;98230.78;;;13.27;99.10
39793;BME280;26080;42.264;24.536;2023-04-01T08:05:19;98227.44;;;13.25;98.76
39793;BME280;26080;42.264;24.536;2023-04-01T08:07:56;98202.88;;;12.79;100.00
39793;BME280;26080;42.264;24.536;2023-04-01T08:21:21;98208.16;;;12.79;100.00
39793;BME280;26080;42.264;24.536;2023-04-01T08:23:52;98203.78;;;12.66;100.00
39793;BME280;26080;42.264;24.536;2023-04-01T08:26:34;98196.75;;;12.67;100.00
39793;BME280;26080;42.264;24.536;2023-04-01T08:34:07;98188.84;;;12.67;100.00
39793;BME280;26080;42.264;24.536;2023-04-01T08:36:38;98176.91;;;12.63;100.00
39793;BME280;26080;42.264;24.536;2023-04-01T08:39:42;98163.31;;;12.69;100.00
39793;BME280;26080;42.264;24.536;2023-04-01T08:52:44;98138.66;;;13.29;100.00
39793;BME280;26080;42.264;24.536;2023-04-01T09:09:06;98134.22;;;13.97;95.54
39793;BME280;26080;42.264;24.536;2023-04-01T09:35:50;98076.81;;;14.34;86.99
39793;BME280;26080;42.264;24.536;2023-04-01T09:46:23;98065.34;;;14.67;84.86
39793;BME280;26080;42.264;24.536;2023-04-01T09:51:57;98057.59;;;14.75;84.66
39793;BME280;26080;42.264;24.536;2023-04-01T10:51:49;97925.47;;;14.89;82.72
39793;BME280;26080;42.264;24.536;2023-04-01T10:54:36;97906.75;;;14.82;84.54
39793;BME280;26080;42.264;24.536;2023-04-01T11:06:24;97898.34;;;16.06;84.22
39793;BME280;26080;42.264;24.536;2023-04-01T11:21:23;97856.22;;;17.16;77.01
39793;BME280;26080;42.264;24.536;2023-04-01T11:27:10;97833.75;;;17.02;77.27
39793;BME280;26080;42.264;24.536;2023-04-01T11:43:47;97830.63;;;17.88;75.09
39793;BME280;26080;42.264;24.536;2023-04-01T12:05:10;97799.91;;;17.77;71.84
39793;BME280;26080;42.264;24.536;2023-04-01T12:20:09;97768.38;;;17.84;76.12
39793;BME280;26080;42.264;24.536;2023-04-01T12:28:23;97751.59;;;18.09;72.32
39793;BME280;26080;42.264;24.536;2023-04-01T12:33:35;97726.84;;;17.92;70.96
39793;BME280;26080;42.264;24.536;2023-04-01T12:44:07;97737.16;;;17.34;76.11
39793;BME280;26080;42.264;24.536;2023-04-01T13:00:55;97684.75;;;17.37;76.99
39793;BME280;26080;42.264;24.536;2023-04-01T13:03:53;97720.84;;;17.21;75.24
39793;BME280;26080;42.264;24.536;2023-04-01T13:09:55;97722.25;;;16.62;76.25
39793;BME280;26080;42.264;24.536;2023-04-01T13:15:57;97770.19;;;16.02;79.39
39793;BME280;26080;42.264;24.536;2023-04-01T13:21:58;97871.91;;;15.48;83.54
39793;BME280;26080;42.264;24.536;2023-04-01T13:27:13;97842.47;;;15.43;82.21
39793;BME280;26080;42.264;24.536;2023-04-01T13:29:43;97874.38;;;15.30;91.98
39793;BME280;26080;42.264;24.536;2023-04-01T13:32:32;97866.59;;;15.09;90.04
39793;BME280;26080;42.264;24.536;2023-04-01T13:43:28;97911.53;;;13.84;100.00
39793;BME280;26080;42.264;24.536;2023-04-01T13:55:05;97892.25;;;13.09;100.00
39793;BME280;26080;42.264;24.536;2023-04-01T14:03:00;97915.19;;;12.95;100.00
39793;BME280;26080;42.264;24.536;2023-04-01T14:13:44;97851.03;;;13.09;100.00
39793;BME280;26080;42.264;24.536;2023-04-01T14:24:58;97846.50;;;13.75;100.00
39793;BME280;26080;42.264;24.536;2023-04-01T14:27:44;97854.56;;;13.83;100.00
39793;BME280;26080;42.264;24.536;2023-04-01T14:33:34;97854.84;;;14.01;100.00
39793;BME280;26080;42.264;24.536;2023-04-01T14:39:00;97879.44;;;13.90;100.00
39793;BME280;26080;42.264;24.536;2023-04-01T14:41:41;97872.69;;;13.77;100.00
39793;BME280;26080;42.264;24.536;2023-04-01T14:44:29;97862.41;;;13.74;100.00
39793;BME280;26080;42.264;24.536;2023-04-01T14:49:53;97875.88;;;13.80;100.00
39793;BME280;26080;42.264;24.536;2023-04-01T14:52:30;97882.06;;;13.90;100.00
39793;BME280;26080;42.264;24.536;2023-04-01T14:55:00;97881.03;;;14.03;100.00
39793;BME280;26080;42.264;24.536;2023-04-01T14:57:33;97846.31;;;13.88;100.00
39793;BME280;26080;42.264;24.536;2023-04-01T15:08:08;97862.56;;;13.72;100.00
39793;BME280;26080;42.264;24.536;2023-04-01T15:33:10;97855.22;;;13.00;100.00
39793;BME280;26080;42.264;24.536;2023-04-01T15:41:14;97853.81;;;12.85;100.00
39793;BME280;26080;42.264;24.536;2023-04-01T15:43:43;97861.59;;;12.75;100.00
39793;BME280;26080;42.264;24.536;2023-04-01T15:49:15;97873.31;;;12.49;100.00
39793;BME280;26080;42.264;24.536;2023-04-01T15:51:54;97872.34;;;12.39;100.00
39793;BME280;26080;42.264;24.536;2023-04-01T15:54:31;97879.97;;;12.31;100.00
39793;BME280;26080;42.264;24.536;2023-04-01T15:59:58;97881.53;;;12.22;100.00
39793;BME280;26080;42.264;24.536;2023-04-01T16:07:47;97850.25;;;12.30;100.00
39793;BME280;26080;42.264;24.536;2023-04-01T16:10:35;97828.41;;;12.30;100.00
39793;BME280;26080;42.264;24.536;2023-04-01T16:19:10;97871.84;;;12.45;100.00
39793;BME280;26080;42.264;24.536;2023-04-01T16:27:35;97878.91;;;12.56;100.00
39793;BME280;26080;42.264;24.536;2023-04-01T16:32:27;97871.25;;;12.41;100.00
39793;BME280;26080;42.264;24.536;2023-04-01T16:35:03;97863.25;;;12.32;100.00
39793;BME280;26080;42.264;24.536;2023-04-01T16:37:33;97864.34;;;12.29;100.00
39793;BME280;26080;42.264;24.536;2023-04-01T16:40:34;97871.88;;;12.34;100.00
39793;BME280;26080;42.264;24.536;2023-04-01T16:46:26;97839.41;;;12.35;100.00
39793;BME280;26080;42.264;24.536;2023-04-01T16:54:41;97851.44;;;12.15;100.00
39793;BME280;26080;42.264;24.536;2023-04-01T17:02:17;97911.13;;;11.65;100.00
39793;BME280;26080;42.264;24.536;2023-04-01T17:04:47;97897.19;;;11.41;100.00
39793;BME280;26080;42.264;24.536;2023-04-01T17:12:47;97920.56;;;11.44;100.00
39793;BME280;26080;42.264;24.536;2023-04-01T17:17:55;97937.28;;;11.30;100.00
39793;BME280;26080;42.264;24.536;2023-04-01T17:20:35;97941.09;;;11.26;100.00
39793;BME280;26080;42.264;24.536;2023-04-01T17:28:53;98042.34;;;11.27;100.00
39793;BME280;26080;42.264;24.536;2023-04-01T17:50:24;98107.41;;;11.58;100.00
39793;BME280;26080;42.264;24.536;2023-04-01T17:56:11;98100.84;;;11.40;100.00
39793;BME280;26080;42.264;24.536;2023-04-01T18:06:45;98133.84;;;10.92;100.00
39793;BME280;26080;42.264;24.536;2023-04-01T18:12:31;98143.13;;;10.71;100.00
39793;BME280;26080;42.264;24.536;2023-04-01T18:25:53;98134.16;;;10.87;100.00
39793;BME280;26080;42.264;24.536;2023-04-01T18:28:37;98126.81;;;10.92;100.00
39793;BME280;26080;42.264;24.536;2023-04-01T18:31:11;98122.38;;;10.80;100.00
39793;BME280;26080;42.264;24.536;2023-04-01T18:33:48;98134.97;;;10.88;100.00
39793;BME280;26080;42.264;24.536;2023-04-01T18:36:49;98140.34;;;10.86;100.00
39793;BME280;26080;42.264;24.536;2023-04-01T18:39:33;98146.06;;;10.79;100.00
39793;BME280;26080;42.264;24.536;2023-04-01T18:42:08;98138.53;;;10.74;100.00
39793;BME280;26080;42.264;24.536;2023-04-01T18:44:49;98139.13;;;10.65;100.00
39793;BME280;26080;42.264;24.536;2023-04-01T18:47:24;98135.13;;;10.59;100.00
39793;BME280;26080;42.264;24.536;2023-04-01T18:50:14;98129.22;;;10.43;100.00
39793;BME280;26080;42.264;24.536;2023-04-01T18:52:44;98145.91;;;10.28;100.00
39793;BME280;26080;42.264;24.536;2023-04-01T18:57:47;98152.59;;;10.05;100.00
39793;BME280;26080;42.264;24.536;2023-04-01T19:00:21;98143.94;;;9.90;100.00
39793;BME280;26080;42.264;24.536;2023-04-01T19:03:07;98143.00;;;9.91;100.00
39793;BME280;26080;42.264;24.536;2023-04-01T19:05:41;98140.81;;;9.98;100.00
39793;BME280;26080;42.264;24.536;2023-04-01T19:11:07;98139.66;;;9.75;100.00
39793;BME280;26080;42.264;24.536;2023-04-01T19:14:07;98142.75;;;9.67;100.00
39793;BME280;26080;42.264;24.536;2023-04-01T19:32:41;98178.31;;;9.27;100.00
39793;BME280;26080;42.264;24.536;2023-04-01T19:40:41;98207.31;;;8.78;100.00
39793;BME280;26080;42.264;24.536;2023-04-01T19:57:43;98224.16;;;9.33;100.00
39793;BME280;26080;42.264;24.536;2023-04-01T20:03:00;98229.78;;;9.11;100.00
39793;BME280;26080;42.264;24.536;2023-04-01T20:08:12;98239.94;;;8.85;100.00
39793;BME280;26080;42.264;24.536;2023-04-01T20:16:14;98249.22;;;8.75;100.00
39793;BME280;26080;42.264;24.536;2023-04-01T20:18:51;98250.31;;;8.71;100.00
39793;BME280;26080;42.264;24.536;2023-04-01T20:26:41;98254.34;;;8.77;100.00
39793;BME280;26080;42.264;24.536;2023-04-01T20:32:24;98248.22;;;8.78;100.00
39793;BME280;26080;42.264;24.536;2023-04-01T20:35:01;98237.06;;;8.90;100.00
39793;BME280;26080;42.264;24.536;2023-04-01T20:38:15;98258.72;;;8.92;100.00
39793;BME280;26080;42.264;24.536;2023-04-01T20:40:50;98254.06;;;8.97;100.00
39793;BME280;26080;42.264;24.536;2023-04-01T20:46:22;98269.47;;;9.02;100.00
39793;BME280;26080;42.264;24.536;2023-04-01T20:51:25;98300.06;;;9.00;100.00
39793;BME280;26080;42.264;24.536;2023-04-01T20:57:00;98271.53;;;8.81;100.00
39793;BME280;26080;42.264;24.536;2023-04-01T21:12:56;98330.06;;;8.77;100.00
39793;BME280;26080;42.264;24.536;2023-04-01T21:23:44;98339.25;;;8.52;100.00
39793;BME280;26080;42.264;24.536;2023-04-01T21:51:49;98352.13;;;8.87;100.00
39793;BME280;26080;42.264;24.536;2023-04-01T22:10:45;98370.88;;;8.13;100.00
39793;BME280;26080;42.264;24.536;2023-04-01T22:18:33;98360.22;;;8.00;100.00
39793;BME280;26080;42.264;24.536;2023-04-01T22:26:48;98375.66;;;7.88;100.00
39793;BME280;26080;42.264;24.536;2023-04-01T22:29:17;98380.41;;;7.80;100.00
39793;BME280;26080;42.264;24.536;2023-04-01T22:31:52;98365.78;;;7.60;100.00
39793;BME280;26080;42.264;24.536;2023-04-01T22:39:58;98382.94;;;7.47;100.00
39793;BME280;26080;42.264;24.536;2023-04-01T22:50:34;98399.25;;;7.50;100.00
39793;BME280;26080;42.264;24.536;2023-04-01T22:55:50;98365.56;;;7.47;100.00
39793;BME280;26080;42.264;24.536;2023-04-01T22:58:30;98394.44;;;7.77;100.00
39793;BME280;26080;42.264;24.536;2023-04-01T23:01:23;98375.59;;;7.72;100.00
39793;BME280;26080;42.264;24.536;2023-04-01T23:03:48;98395.38;;;7.76;100.00
39793;BME280;26080;42.264;24.536;2023-04-01T23:06:24;98399.50;;;7.80;100.00
39793;BME280;26080;42.264;24.536;2023-04-01T23:08:56;98399.13;;;7.70;100.00
39793;BME280;26080;42.264;24.536;2023-04-01T23:19:54;98392.13;;;8.23;100.00
39793;BME280;26080;42.264;24.536;2023-04-01T23:22:54;98391.66;;;8.48;100.00
39793;BME280;26080;42.264;24.536;2023-04-01T23:35:50;98383.38;;;8.07;100.00
39793;BME280;26080;42.264;24.536;2023-04-01T23:38:17;98407.56;;;8.10;100.00
39793;BME280;26080;42.264;24.536;2023-04-01T23:40:42;98409.44;;;8.07;100.00
39793;BME280;26080;42.264;24.536;2023-04-01T23:43:22;98416.22;;;8.11;100.00
39793;BME280;26080;42.264;24.536;2023-04-01T23:45:48;98421.03;;;8.18;100.00
39793;BME280;26080;42.264;24.536;2023-04-01T23:48:15;98413.00;;;7.88;100.00
39793;BME280;26080;42.264;24.536;2023-04-01T23:50:41;98425.72;;;7.77;100.00
39793;BME280;26080;42.264;24.536;2023-04-01T23:53:20;98423.88;;;7.62;100.00
39793;BME280;26080;42.264;24.536;2023-04-01T23:55:48;98416.38;;;7.56;100.00
